TAF KPSC
KPSC 081724Z 0818/0918 26020G32KT P6SM SCT070 SCT250 FM090200 23011G18KT P6SM SCT250 FM090600 22010KT P6SM FEW250 FM091200 22013KT P6SM BKN080=
METAR KPSC
WC KPSC
WS KPSC
WV KPSC